Farlington, KS

9:10 AM CST on December 22, 2014 (GMT -0600)
Frontenac Industrial Park | Change Station
CLOSE
Current Station
Personal Weather Station
Location: Frontenac, KS
Elevation: 965 ft
Nearby Weather Stations

Elev 965 ft 37.49 °N, 94.70 °W | Updated 0 second ago

Overcast
Overcast
45.7 °F
Feels Like 46 °F
N
0.0
Wind Variable Wind from North
Gusts 0.0 mph

Today
High -- | Low -- °F
--% Chance of Precip.
Yesterday
High -- | Low -- °F
Precip. -- in
7:31 AM 5:05 PM
New Moon, 0% visible
Pressure 29.59 in
Visibility 2.0 miles
Clouds Overcast 300 ft
Windchill 46 °F
Dew Point 28 °F
Humidity 50%
Rainfall 0.04 in
Snow Depth Not available.
UV 0 out of 12
Pollen 5.20 out of 12
Air Quality Not available.
Flu Activity Not available.
METAR KPTS 221455Z AUTO 15005KT 2SM DZ OVC003 08/08 A2959 RMK AO2 P0001 T00770078

More Conditions Fewer Conditions

Pressure 29.59 in
Visibility 2.0 miles
Clouds Overcast 300 ft
Windchill 46 °F
Dew Point 28 °F
Humidity 50%
Rainfall 0.04 in
Snow Depth Not available.
UV 0 out of 12
Pollen 5.20 out of 12
Air Quality Not available.
Flu Activity Not available.
METAR KPTS 221455Z AUTO 15005KT 2SM DZ OVC003 08/08 A2959 RMK AO2 P0001 T00770078

More Conditions Fewer Conditions

10-Day Weather Forecast

Almanac

Astronomy

Dec. 22, 2014 Rise Set
Actual Time
Civil Twilight
Nautical Twilight
Astronomical Twilight
Moon
Length of Visible Light
Length of Day
Tomorrow will be .
, % of the Moon is Illuminated

Today's Extremes

State Highs State Lows

Community

WunderPhotos

Upload Photos

1,779,610 photos uploaded!

WunderBlogs® & News

Nearby

Air Quality

  Air Quality AQ Index Pollutant
Not available.

Snow Depth

Station Depth Elevation

Earthquake Activity

City Distance Mag. Time & Date
Minimum magnitude displayed is 2.5.

Coastal Water Temperatures

Place Temperature

Nearby Weather Stations